sensor_id;sensor_type;location;lat;lon;timestamp;temperature;humidity
27224;DHT22;14965;50.660;13.226;2022-10-16T00:01:42;13.50;99.90
27224;DHT22;14965;50.660;13.226;2022-10-16T00:04:08;13.60;99.90
27224;DHT22;14965;50.660;13.226;2022-10-16T00:06:34;13.50;99.90
27224;DHT22;14965;50.660;13.226;2022-10-16T00:09:00;13.60;99.90
27224;DHT22;14965;50.660;13.226;2022-10-16T00:11:28;13.60;99.90
27224;DHT22;14965;50.660;13.226;2022-10-16T00:13:58;13.60;99.90
27224;DHT22;14965;50.660;13.226;2022-10-16T00:16:27;13.60;99.90
27224;DHT22;14965;50.660;13.226;2022-10-16T00:18:54;13.60;99.90
27224;DHT22;14965;50.660;13.226;2022-10-16T00:21:22;13.60;99.90
27224;DHT22;14965;50.660;13.226;2022-10-16T00:23:51;13.60;99.90
27224;DHT22;14965;50.660;13.226;2022-10-16T00:26:18;13.60;99.90
27224;DHT22;14965;50.660;13.226;2022-10-16T00:28:45;13.60;99.90
27224;DHT22;14965;50.660;13.226;2022-10-16T00:31:12;13.60;99.90
27224;DHT22;14965;50.660;13.226;2022-10-16T00:33:40;13.70;99.90
27224;DHT22;14965;50.660;13.226;2022-10-16T00:36:08;13.70;99.90
27224;DHT22;14965;50.660;13.226;2022-10-16T00:38:36;13.70;99.90
27224;DHT22;14965;50.660;13.226;2022-10-16T00:41:02;13.60;99.90
27224;DHT22;14965;50.660;13.226;2022-10-16T00:43:35;13.60;99.90
27224;DHT22;14965;50.660;13.226;2022-10-16T00:46:05;13.60;99.90
27224;DHT22;14965;50.660;13.226;2022-10-16T00:48:36;13.60;99.90
27224;DHT22;14965;50.660;13.226;2022-10-16T00:51:04;13.50;99.90
27224;DHT22;14965;50.660;13.226;2022-10-16T00:53:33;13.50;99.90
27224;DHT22;14965;50.660;13.226;2022-10-16T00:55:59;13.50;99.90
27224;DHT22;14965;50.660;13.226;2022-10-16T00:58:25;13.50;99.90
27224;DHT22;14965;50.660;13.226;2022-10-16T01:00:51;13.50;99.90
27224;DHT22;14965;50.660;13.226;2022-10-16T01:03:26;13.50;99.90
27224;DHT22;14965;50.660;13.226;2022-10-16T01:06:05;13.50;99.90
27224;DHT22;14965;50.660;13.226;2022-10-16T01:08:44;13.40;99.90
27224;DHT22;14965;50.660;13.226;2022-10-16T01:11:20;13.30;99.90
27224;DHT22;14965;50.660;13.226;2022-10-16T01:13:54;13.30;99.90
27224;DHT22;14965;50.660;13.226;2022-10-16T01:16:29;13.30;99.90
27224;DHT22;14965;50.660;13.226;2022-10-16T01:19:09;13.30;99.90
27224;DHT22;14965;50.660;13.226;2022-10-16T01:21:43;13.30;99.90
27224;DHT22;14965;50.660;13.226;2022-10-16T01:24:17;13.30;99.90
27224;DHT22;14965;50.660;13.226;2022-10-16T01:27:15;13.40;99.90
27224;DHT22;14965;50.660;13.226;2022-10-16T01:29:51;13.40;99.90
27224;DHT22;14965;50.660;13.226;2022-10-16T01:32:24;13.40;99.90
27224;DHT22;14965;50.660;13.226;2022-10-16T01:35:00;13.40;99.90
27224;DHT22;14965;50.660;13.226;2022-10-16T01:37:34;13.40;99.90
27224;DHT22;14965;50.660;13.226;2022-10-16T01:40:07;13.40;99.90
27224;DHT22;14965;50.660;13.226;2022-10-16T01:42:41;13.40;99.90
27224;DHT22;14965;50.660;13.226;2022-10-16T01:45:12;13.40;99.90
27224;DHT22;14965;50.660;13.226;2022-10-16T01:47:41;13.40;99.90
27224;DHT22;14965;50.660;13.226;2022-10-16T01:50:09;13.40;99.90
27224;DHT22;14965;50.660;13.226;2022-10-16T01:52:39;13.40;99.90
27224;DHT22;14965;50.660;13.226;2022-10-16T01:55:09;13.40;99.90
27224;DHT22;14965;50.660;13.226;2022-10-16T01:57:42;13.40;99.90
27224;DHT22;14965;50.660;13.226;2022-10-16T02:00:13;13.40;99.90
27224;DHT22;14965;50.660;13.226;2022-10-16T02:02:45;13.50;99.90
27224;DHT22;14965;50.660;13.226;2022-10-16T02:05:17;13.50;99.90
27224;DHT22;14965;50.660;13.226;2022-10-16T02:07:47;13.50;99.90
27224;DHT22;14965;50.660;13.226;2022-10-16T02:10:14;13.50;99.90
27224;DHT22;14965;50.660;13.226;2022-10-16T02:12:45;13.50;99.90
27224;DHT22;14965;50.660;13.226;2022-10-16T02:15:15;13.50;99.90
27224;DHT22;14965;50.660;13.226;2022-10-16T02:17:41;13.50;99.90
27224;DHT22;14965;50.660;13.226;2022-10-16T02:20:07;13.50;99.90
27224;DHT22;14965;50.660;13.226;2022-10-16T02:22:36;13.50;99.90
27224;DHT22;14965;50.660;13.226;2022-10-16T02:25:08;13.50;99.90
27224;DHT22;14965;50.660;13.226;2022-10-16T02:27:43;13.50;99.90
27224;DHT22;14965;50.660;13.226;2022-10-16T02:30:20;13.50;99.90
27224;DHT22;14965;50.660;13.226;2022-10-16T02:32:51;13.60;99.90
27224;DHT22;14965;50.660;13.226;2022-10-16T02:35:20;13.50;99.90
27224;DHT22;14965;50.660;13.226;2022-10-16T02:37:49;13.60;99.90
27224;DHT22;14965;50.660;13.226;2022-10-16T02:40:17;13.60;99.90
27224;DHT22;14965;50.660;13.226;2022-10-16T02:42:44;13.60;99.90
27224;DHT22;14965;50.660;13.226;2022-10-16T02:45:15;13.60;99.90
27224;DHT22;14965;50.660;13.226;2022-10-16T02:47:41;13.70;99.90
27224;DHT22;14965;50.660;13.226;2022-10-16T02:50:07;13.60;99.90
27224;DHT22;14965;50.660;13.226;2022-10-16T02:52:33;13.70;99.90
27224;DHT22;14965;50.660;13.226;2022-10-16T02:54:59;13.70;99.90
27224;DHT22;14965;50.660;13.226;2022-10-16T02:57:25;13.70;99.90
27224;DHT22;14965;50.660;13.226;2022-10-16T02:59:53;13.70;99.90
27224;DHT22;14965;50.660;13.226;2022-10-16T03:02:19;13.80;99.90
27224;DHT22;14965;50.660;13.226;2022-10-16T03:04:46;13.80;99.90
27224;DHT22;14965;50.660;13.226;2022-10-16T03:07:12;13.80;99.90
27224;DHT22;14965;50.660;13.226;2022-10-16T03:09:38;13.80;99.90
27224;DHT22;14965;50.660;13.226;2022-10-16T03:12:04;13.80;99.90
27224;DHT22;14965;50.660;13.226;2022-10-16T03:14:30;13.80;99.90
27224;DHT22;14965;50.660;13.226;2022-10-16T03:16:57;13.80;99.90
27224;DHT22;14965;50.660;13.226;2022-10-16T03:19:23;13.90;99.90
27224;DHT22;14965;50.660;13.226;2022-10-16T03:21:49;13.80;99.90
27224;DHT22;14965;50.660;13.226;2022-10-16T03:24:15;13.80;99.90
27224;DHT22;14965;50.660;13.226;2022-10-16T03:26:41;13.80;99.90
27224;DHT22;14965;50.660;13.226;2022-10-16T03:29:07;13.80;99.90
27224;DHT22;14965;50.660;13.226;2022-10-16T03:31:33;13.80;99.90
27224;DHT22;14965;50.660;13.226;2022-10-16T03:34:01;13.80;99.90
27224;DHT22;14965;50.660;13.226;2022-10-16T03:36:27;13.70;99.90
27224;DHT22;14965;50.660;13.226;2022-10-16T03:38:53;13.70;99.90
27224;DHT22;14965;50.660;13.226;2022-10-16T03:41:19;13.70;99.90
27224;DHT22;14965;50.660;13.226;2022-10-16T03:43:45;13.60;99.90
27224;DHT22;14965;50.660;13.226;2022-10-16T03:46:10;13.50;99.90
27224;DHT22;14965;50.660;13.226;2022-10-16T03:48:36;13.50;99.90
27224;DHT22;14965;50.660;13.226;2022-10-16T03:51:04;13.40;99.90
27224;DHT22;14965;50.660;13.226;2022-10-16T03:53:30;13.40;99.90
27224;DHT22;14965;50.660;13.226;2022-10-16T03:55:56;13.40;99.90
27224;DHT22;14965;50.660;13.226;2022-10-16T03:58:22;13.40;99.90
27224;DHT22;14965;50.660;13.226;2022-10-16T04:00:48;13.40;99.90
27224;DHT22;14965;50.660;13.226;2022-10-16T04:03:14;13.50;99.90
27224;DHT22;14965;50.660;13.226;2022-10-16T04:05:40;13.50;99.90
27224;DHT22;14965;50.660;13.226;2022-10-16T04:08:07;13.50;99.90
27224;DHT22;14965;50.660;13.226;2022-10-16T04:10:33;13.50;99.90
27224;DHT22;14965;50.660;13.226;2022-10-16T04:12:59;13.60;99.90
27224;DHT22;14965;50.660;13.226;2022-10-16T04:15:25;13.60;99.90
27224;DHT22;14965;50.660;13.226;2022-10-16T04:17:52;13.60;99.90
27224;DHT22;14965;50.660;13.226;2022-10-16T04:20:18;13.60;99.90
27224;DHT22;14965;50.660;13.226;2022-10-16T04:22:44;13.60;99.90
27224;DHT22;14965;50.660;13.226;2022-10-16T04:25:12;13.70;99.90
27224;DHT22;14965;50.660;13.226;2022-10-16T04:27:38;13.70;99.90
27224;DHT22;14965;50.660;13.226;2022-10-16T04:30:05;13.70;99.90
27224;DHT22;14965;50.660;13.226;2022-10-16T04:32:32;13.70;99.90
27224;DHT22;14965;50.660;13.226;2022-10-16T04:34:58;13.80;99.90
27224;DHT22;14965;50.660;13.226;2022-10-16T04:37:24;13.80;99.90
27224;DHT22;14965;50.660;13.226;2022-10-16T04:39:51;13.80;99.90
27224;DHT22;14965;50.660;13.226;2022-10-16T04:42:18;13.80;99.90
27224;DHT22;14965;50.660;13.226;2022-10-16T04:44:45;13.80;99.90
27224;DHT22;14965;50.660;13.226;2022-10-16T04:47:11;13.80;99.90
27224;DHT22;14965;50.660;13.226;2022-10-16T04:49:37;13.80;99.90
27224;DHT22;14965;50.660;13.226;2022-10-16T04:52:03;13.80;99.90
27224;DHT22;14965;50.660;13.226;2022-10-16T04:54:29;13.80;99.90
27224;DHT22;14965;50.660;13.226;2022-10-16T04:56:55;13.70;99.90
27224;DHT22;14965;50.660;13.226;2022-10-16T04:59:23;13.70;99.90
27224;DHT22;14965;50.660;13.226;2022-10-16T05:01:49;13.70;99.90
27224;DHT22;14965;50.660;13.226;2022-10-16T05:04:15;13.70;99.90
27224;DHT22;14965;50.660;13.226;2022-10-16T05:06:42;13.70;99.90
27224;DHT22;14965;50.660;13.226;2022-10-16T05:09:08;13.70;99.90
27224;DHT22;14965;50.660;13.226;2022-10-16T05:11:35;13.70;99.90
27224;DHT22;14965;50.660;13.226;2022-10-16T05:14:01;13.70;99.90
27224;DHT22;14965;50.660;13.226;2022-10-16T05:16:29;13.70;99.90
27224;DHT22;14965;50.660;13.226;2022-10-16T05:18:55;13.70;99.90
27224;DHT22;14965;50.660;13.226;2022-10-16T05:21:21;13.80;99.90
27224;DHT22;14965;50.660;13.226;2022-10-16T05:23:47;13.70;99.90
27224;DHT22;14965;50.660;13.226;2022-10-16T05:26:13;13.70;99.90
27224;DHT22;14965;50.660;13.226;2022-10-16T05:28:39;13.70;99.90
27224;DHT22;14965;50.660;13.226;2022-10-16T05:31:06;13.70;99.90
27224;DHT22;14965;50.660;13.226;2022-10-16T05:33:33;13.70;99.90
27224;DHT22;14965;50.660;13.226;2022-10-16T05:36:01;13.70;99.90
27224;DHT22;14965;50.660;13.226;2022-10-16T05:38:28;13.70;99.90
27224;DHT22;14965;50.660;13.226;2022-10-16T05:40:54;13.70;99.90
27224;DHT22;14965;50.660;13.226;2022-10-16T05:43:20;13.70;99.90
27224;DHT22;14965;50.660;13.226;2022-10-16T05:45:53;13.70;99.90
27224;DHT22;14965;50.660;13.226;2022-10-16T05:48:20;13.80;99.90
27224;DHT22;14965;50.660;13.226;2022-10-16T05:50:47;13.80;99.90
27224;DHT22;14965;50.660;13.226;2022-10-16T05:53:13;13.80;99.90
27224;DHT22;14965;50.660;13.226;2022-10-16T05:55:39;13.80;99.90
27224;DHT22;14965;50.660;13.226;2022-10-16T05:58:05;13.80;99.90
27224;DHT22;14965;50.660;13.226;2022-10-16T06:00:31;13.80;99.90
27224;DHT22;14965;50.660;13.226;2022-10-16T06:02:57;13.80;99.90
27224;DHT22;14965;50.660;13.226;2022-10-16T06:05:23;13.80;99.90
27224;DHT22;14965;50.660;13.226;2022-10-16T06:07:50;13.80;99.90
27224;DHT22;14965;50.660;13.226;2022-10-16T06:10:16;13.80;99.90
27224;DHT22;14965;50.660;13.226;2022-10-16T06:12:42;13.80;99.90
27224;DHT22;14965;50.660;13.226;2022-10-16T06:15:08;13.80;99.90
27224;DHT22;14965;50.660;13.226;2022-10-16T06:17:34;13.90;99.90
27224;DHT22;14965;50.660;13.226;2022-10-16T06:20:00;13.90;99.90
27224;DHT22;14965;50.660;13.226;2022-10-16T06:22:26;14.00;99.90
27224;DHT22;14965;50.660;13.226;2022-10-16T06:24:53;14.00;99.90
27224;DHT22;14965;50.660;13.226;2022-10-16T06:27:19;14.10;99.90
27224;DHT22;14965;50.660;13.226;2022-10-16T06:29:45;14.10;99.90
27224;DHT22;14965;50.660;13.226;2022-10-16T06:32:11;14.10;99.90
27224;DHT22;14965;50.660;13.226;2022-10-16T06:34:37;14.20;99.90
27224;DHT22;14965;50.660;13.226;2022-10-16T06:37:03;14.30;99.90
27224;DHT22;14965;50.660;13.226;2022-10-16T06:39:29;14.30;99.90
27224;DHT22;14965;50.660;13.226;2022-10-16T06:41:56;14.30;99.90
27224;DHT22;14965;50.660;13.226;2022-10-16T06:44:22;14.40;99.90
27224;DHT22;14965;50.660;13.226;2022-10-16T06:46:48;14.50;99.90
27224;DHT22;14965;50.660;13.226;2022-10-16T06:49:14;14.50;99.90
27224;DHT22;14965;50.660;13.226;2022-10-16T06:51:40;14.50;99.90
27224;DHT22;14965;50.660;13.226;2022-10-16T06:54:06;14.60;99.90
27224;DHT22;14965;50.660;13.226;2022-10-16T06:56:32;14.60;99.90
27224;DHT22;14965;50.660;13.226;2022-10-16T06:59:01;14.70;99.90
27224;DHT22;14965;50.660;13.226;2022-10-16T07:01:28;14.80;99.90
27224;DHT22;14965;50.660;13.226;2022-10-16T07:03:54;14.90;99.90
27224;DHT22;14965;50.660;13.226;2022-10-16T07:06:22;15.00;99.90
27224;DHT22;14965;50.660;13.226;2022-10-16T07:08:50;15.00;99.90
27224;DHT22;14965;50.660;13.226;2022-10-16T07:11:18;15.10;99.90
27224;DHT22;14965;50.660;13.226;2022-10-16T07:13:46;15.10;99.90
27224;DHT22;14965;50.660;13.226;2022-10-16T07:16:15;15.10;99.90
27224;DHT22;14965;50.660;13.226;2022-10-16T07:18:43;15.20;99.90
27224;DHT22;14965;50.660;13.226;2022-10-16T07:21:12;15.30;99.90
27224;DHT22;14965;50.660;13.226;2022-10-16T07:23:39;15.30;99.90
27224;DHT22;14965;50.660;13.226;2022-10-16T07:26:06;15.40;99.90
27224;DHT22;14965;50.660;13.226;2022-10-16T07:28:33;15.50;99.90
27224;DHT22;14965;50.660;13.226;2022-10-16T07:31:00;15.50;99.90
27224;DHT22;14965;50.660;13.226;2022-10-16T07:33:28;15.60;99.90
27224;DHT22;14965;50.660;13.226;2022-10-16T07:35:54;15.60;99.90
27224;DHT22;14965;50.660;13.226;2022-10-16T07:38:21;15.70;99.90
27224;DHT22;14965;50.660;13.226;2022-10-16T07:40:48;15.80;99.90
27224;DHT22;14965;50.660;13.226;2022-10-16T07:43:14;15.80;99.90
27224;DHT22;14965;50.660;13.226;2022-10-16T07:45:47;15.80;99.90
27224;DHT22;14965;50.660;13.226;2022-10-16T07:48:13;15.80;99.90
27224;DHT22;14965;50.660;13.226;2022-10-16T07:50:40;15.90;99.90
27224;DHT22;14965;50.660;13.226;2022-10-16T07:53:06;15.80;99.90
27224;DHT22;14965;50.660;13.226;2022-10-16T07:55:32;15.90;99.90
27224;DHT22;14965;50.660;13.226;2022-10-16T07:57:58;15.90;99.90
27224;DHT22;14965;50.660;13.226;2022-10-16T08:00:24;16.00;99.90
27224;DHT22;14965;50.660;13.226;2022-10-16T08:02:50;16.10;99.90
27224;DHT22;14965;50.660;13.226;2022-10-16T08:05:16;16.10;99.90
27224;DHT22;14965;50.660;13.226;2022-10-16T08:07:48;16.10;99.90
27224;DHT22;14965;50.660;13.226;2022-10-16T08:10:16;16.10;99.90
27224;DHT22;14965;50.660;13.226;2022-10-16T08:12:43;16.20;99.90
27224;DHT22;14965;50.660;13.226;2022-10-16T08:15:10;16.30;99.90
27224;DHT22;14965;50.660;13.226;2022-10-16T08:17:36;16.40;99.90
27224;DHT22;14965;50.660;13.226;2022-10-16T08:20:02;16.50;99.90
27224;DHT22;14965;50.660;13.226;2022-10-16T08:22:28;16.50;99.90
27224;DHT22;14965;50.660;13.226;2022-10-16T08:24:56;16.60;99.90
27224;DHT22;14965;50.660;13.226;2022-10-16T08:27:22;16.60;99.90
27224;DHT22;14965;50.660;13.226;2022-10-16T08:29:48;16.60;99.90
27224;DHT22;14965;50.660;13.226;2022-10-16T08:32:15;16.80;99.90
27224;DHT22;14965;50.660;13.226;2022-10-16T08:34:43;16.80;99.90
27224;DHT22;14965;50.660;13.226;2022-10-16T08:37:08;17.00;99.90
27224;DHT22;14965;50.660;13.226;2022-10-16T08:39:34;17.00;99.90
27224;DHT22;14965;50.660;13.226;2022-10-16T08:42:32;17.00;99.90
27224;DHT22;14965;50.660;13.226;2022-10-16T08:45:24;17.10;99.90
27224;DHT22;14965;50.660;13.226;2022-10-16T08:48:11;17.10;99.90
27224;DHT22;14965;50.660;13.226;2022-10-16T08:50:43;17.20;99.90
27224;DHT22;14965;50.660;13.226;2022-10-16T08:53:16;17.20;99.90
27224;DHT22;14965;50.660;13.226;2022-10-16T08:55:49;17.40;99.90
27224;DHT22;14965;50.660;13.226;2022-10-16T08:58:20;17.40;99.90
27224;DHT22;14965;50.660;13.226;2022-10-16T09:00:48;17.50;99.90
27224;DHT22;14965;50.660;13.226;2022-10-16T09:03:39;17.70;99.90
27224;DHT22;14965;50.660;13.226;2022-10-16T09:06:28;17.80;99.90
27224;DHT22;14965;50.660;13.226;2022-10-16T09:09:15;17.90;99.90
27224;DHT22;14965;50.660;13.226;2022-10-16T09:11:55;18.00;99.90
27224;DHT22;14965;50.660;13.226;2022-10-16T09:14:38;18.10;99.90
27224;DHT22;14965;50.660;13.226;2022-10-16T09:17:30;18.10;99.90
27224;DHT22;14965;50.660;13.226;2022-10-16T09:20:15;18.20;99.90
27224;DHT22;14965;50.660;13.226;2022-10-16T09:22:51;18.10;99.90
27224;DHT22;14965;50.660;13.226;2022-10-16T09:25:21;18.10;99.90
27224;DHT22;14965;50.660;13.226;2022-10-16T09:27:48;17.90;99.90
27224;DHT22;14965;50.660;13.226;2022-10-16T09:30:21;17.80;99.90
27224;DHT22;14965;50.660;13.226;2022-10-16T09:32:50;17.80;99.90
27224;DHT22;14965;50.660;13.226;2022-10-16T09:35:20;17.80;99.90
27224;DHT22;14965;50.660;13.226;2022-10-16T09:37:49;17.70;99.90
27224;DHT22;14965;50.660;13.226;2022-10-16T09:40:25;17.70;99.90
27224;DHT22;14965;50.660;13.226;2022-10-16T09:43:03;17.60;99.90
27224;DHT22;14965;50.660;13.226;2022-10-16T09:45:41;17.50;99.90
27224;DHT22;14965;50.660;13.226;2022-10-16T09:48:11;17.40;99.90
27224;DHT22;14965;50.660;13.226;2022-10-16T09:50:55;17.40;99.90
27224;DHT22;14965;50.660;13.226;2022-10-16T09:53:22;17.50;99.90
27224;DHT22;14965;50.660;13.226;2022-10-16T09:55:48;17.60;99.90
27224;DHT22;14965;50.660;13.226;2022-10-16T09:58:15;17.60;99.90
27224;DHT22;14965;50.660;13.226;2022-10-16T10:00:49;17.60;99.90
27224;DHT22;14965;50.660;13.226;2022-10-16T10:03:33;17.50;99.90
27224;DHT22;14965;50.660;13.226;2022-10-16T10:06:07;17.50;99.90
27224;DHT22;14965;50.660;13.226;2022-10-16T10:08:56;17.50;99.90
27224;DHT22;14965;50.660;13.226;2022-10-16T10:11:46;17.40;99.90
27224;DHT22;14965;50.660;13.226;2022-10-16T10:14:23;17.50;99.90
27224;DHT22;14965;50.660;13.226;2022-10-16T10:19:49;17.60;99.90
27224;DHT22;14965;50.660;13.226;2022-10-16T10:22:26;17.70;99.90
27224;DHT22;14965;50.660;13.226;2022-10-16T10:28:03;17.90;99.90
27224;DHT22;14965;50.660;13.226;2022-10-16T10:30:48;18.00;99.90
27224;DHT22;14965;50.660;13.226;2022-10-16T10:33:30;18.10;99.90
27224;DHT22;14965;50.660;13.226;2022-10-16T10:36:12;18.10;99.90
27224;DHT22;14965;50.660;13.226;2022-10-16T10:38:50;18.20;99.90
27224;DHT22;14965;50.660;13.226;2022-10-16T10:41:38;18.30;99.90
27224;DHT22;14965;50.660;13.226;2022-10-16T10:44:53;18.30;99.90
27224;DHT22;14965;50.660;13.226;2022-10-16T10:47:31;18.30;99.90
27224;DHT22;14965;50.660;13.226;2022-10-16T10:50:14;18.40;99.90
27224;DHT22;14965;50.660;13.226;2022-10-16T10:52:56;18.20;99.90
27224;DHT22;14965;50.660;13.226;2022-10-16T10:55:37;18.20;99.90
27224;DHT22;14965;50.660;13.226;2022-10-16T11:01:27;18.30;99.90
27224;DHT22;14965;50.660;13.226;2022-10-16T11:07:19;18.30;99.90
27224;DHT22;14965;50.660;13.226;2022-10-16T11:09:53;18.30;99.90
27224;DHT22;14965;50.660;13.226;2022-10-16T11:12:27;18.40;99.90
27224;DHT22;14965;50.660;13.226;2022-10-16T11:15:03;18.50;99.90
27224;DHT22;14965;50.660;13.226;2022-10-16T11:17:39;18.50;99.90
27224;DHT22;14965;50.660;13.226;2022-10-16T11:20:13;18.50;99.90
27224;DHT22;14965;50.660;13.226;2022-10-16T11:22:48;18.60;99.90
27224;DHT22;14965;50.660;13.226;2022-10-16T11:25:20;18.60;99.90
27224;DHT22;14965;50.660;13.226;2022-10-16T11:27:51;18.70;99.90
27224;DHT22;14965;50.660;13.226;2022-10-16T11:30:24;18.80;99.90
27224;DHT22;14965;50.660;13.226;2022-10-16T11:33:03;18.90;99.90
27224;DHT22;14965;50.660;13.226;2022-10-16T11:35:43;18.80;99.90
27224;DHT22;14965;50.660;13.226;2022-10-16T11:38:22;18.80;99.90
27224;DHT22;14965;50.660;13.226;2022-10-16T11:40:58;18.80;99.90
27224;DHT22;14965;50.660;13.226;2022-10-16T11:43:34;18.90;99.90
27224;DHT22;14965;50.660;13.226;2022-10-16T11:46:11;19.00;99.90
27224;DHT22;14965;50.660;13.226;2022-10-16T11:48:45;19.10;99.90
27224;DHT22;14965;50.660;13.226;2022-10-16T11:51:19;19.20;99.90
27224;DHT22;14965;50.660;13.226;2022-10-16T11:54:00;19.40;99.90
27224;DHT22;14965;50.660;13.226;2022-10-16T11:56:31;19.50;99.90
27224;DHT22;14965;50.660;13.226;2022-10-16T11:59:04;19.70;99.90
27224;DHT22;14965;50.660;13.226;2022-10-16T12:01:38;19.70;99.90
27224;DHT22;14965;50.660;13.226;2022-10-16T12:04:18;19.70;99.90
27224;DHT22;14965;50.660;13.226;2022-10-16T12:06:52;19.70;99.90
27224;DHT22;14965;50.660;13.226;2022-10-16T12:09:27;19.70;99.90
27224;DHT22;14965;50.660;13.226;2022-10-16T12:11:56;19.70;99.90
27224;DHT22;14965;50.660;13.226;2022-10-16T12:14:38;19.70;99.90
27224;DHT22;14965;50.660;13.226;2022-10-16T12:17:24;19.70;99.90
27224;DHT22;14965;50.660;13.226;2022-10-16T12:20:00;19.70;99.90
27224;DHT22;14965;50.660;13.226;2022-10-16T12:22:47;19.70;99.90
27224;DHT22;14965;50.660;13.226;2022-10-16T12:25:22;19.60;99.90
27224;DHT22;14965;50.660;13.226;2022-10-16T12:27:55;19.60;99.90
27224;DHT22;14965;50.660;13.226;2022-10-16T12:30:28;19.50;99.90
27224;DHT22;14965;50.660;13.226;2022-10-16T12:32:57;19.40;99.90
27224;DHT22;14965;50.660;13.226;2022-10-16T12:35:26;19.40;99.90
27224;DHT22;14965;50.660;13.226;2022-10-16T12:38:08;19.50;99.90
27224;DHT22;14965;50.660;13.226;2022-10-16T12:40:43;19.60;99.90
27224;DHT22;14965;50.660;13.226;2022-10-16T12:43:27;19.60;99.90
27224;DHT22;14965;50.660;13.226;2022-10-16T12:46:04;19.50;99.90
27224;DHT22;14965;50.660;13.226;2022-10-16T12:48:47;19.50;99.90
27224;DHT22;14965;50.660;13.226;2022-10-16T12:51:24;19.40;99.90
27224;DHT22;14965;50.660;13.226;2022-10-16T12:54:01;19.40;99.90
27224;DHT22;14965;50.660;13.226;2022-10-16T12:56:39;19.20;99.90
27224;DHT22;14965;50.660;13.226;2022-10-16T12:59:21;19.10;99.90
27224;DHT22;14965;50.660;13.226;2022-10-16T13:05:27;19.00;99.90
27224;DHT22;14965;50.660;13.226;2022-10-16T13:08:09;19.00;99.90
27224;DHT22;14965;50.660;13.226;2022-10-16T13:10:54;19.10;99.90
27224;DHT22;14965;50.660;13.226;2022-10-16T13:13:44;19.20;99.90
27224;DHT22;14965;50.660;13.226;2022-10-16T13:16:35;19.20;99.90
27224;DHT22;14965;50.660;13.226;2022-10-16T13:19:24;19.30;99.90
27224;DHT22;14965;50.660;13.226;2022-10-16T13:22:02;19.40;99.90
27224;DHT22;14965;50.660;13.226;2022-10-16T13:24:50;19.40;99.90
27224;DHT22;14965;50.660;13.226;2022-10-16T13:27:29;19.40;99.90
27224;DHT22;14965;50.660;13.226;2022-10-16T13:30:12;19.30;99.90
27224;DHT22;14965;50.660;13.226;2022-10-16T13:32:45;19.20;99.90
27224;DHT22;14965;50.660;13.226;2022-10-16T13:35:20;19.10;99.90
27224;DHT22;14965;50.660;13.226;2022-10-16T13:37:47;19.00;99.90
27224;DHT22;14965;50.660;13.226;2022-10-16T13:40:19;18.90;99.90
27224;DHT22;14965;50.660;13.226;2022-10-16T13:42:47;18.90;99.90
27224;DHT22;14965;50.660;13.226;2022-10-16T13:45:20;18.80;99.90
27224;DHT22;14965;50.660;13.226;2022-10-16T13:47:47;18.70;99.90
27224;DHT22;14965;50.660;13.226;2022-10-16T13:50:15;18.70;99.90
27224;DHT22;14965;50.660;13.226;2022-10-16T13:52:43;18.60;99.90
27224;DHT22;14965;50.660;13.226;2022-10-16T13:55:14;18.60;99.90
27224;DHT22;14965;50.660;13.226;2022-10-16T13:57:42;18.60;99.90
27224;DHT22;14965;50.660;13.226;2022-10-16T14:00:21;18.50;99.90
27224;DHT22;14965;50.660;13.226;2022-10-16T14:02:55;18.60;99.90
27224;DHT22;14965;50.660;13.226;2022-10-16T14:05:26;18.60;99.90
27224;DHT22;14965;50.660;13.226;2022-10-16T14:07:54;18.70;99.90
27224;DHT22;14965;50.660;13.226;2022-10-16T14:14:11;18.70;99.90
27224;DHT22;14965;50.660;13.226;2022-10-16T14:16:46;18.80;99.90
27224;DHT22;14965;50.660;13.226;2022-10-16T14:19:20;18.90;99.90
27224;DHT22;14965;50.660;13.226;2022-10-16T14:21:53;18.80;99.90
27224;DHT22;14965;50.660;13.226;2022-10-16T14:24:26;18.80;99.90
27224;DHT22;14965;50.660;13.226;2022-10-16T14:27:20;18.80;99.90
27224;DHT22;14965;50.660;13.226;2022-10-16T14:31:24;18.80;99.90
27224;DHT22;14965;50.660;13.226;2022-10-16T14:33:57;18.60;99.90
27224;DHT22;14965;50.660;13.226;2022-10-16T14:36:40;18.60;99.90
27224;DHT22;14965;50.660;13.226;2022-10-16T14:39:19;18.60;99.90
27224;DHT22;14965;50.660;13.226;2022-10-16T14:41:59;18.60;99.90
27224;DHT22;14965;50.660;13.226;2022-10-16T14:44:46;18.60;99.90
27224;DHT22;14965;50.660;13.226;2022-10-16T14:47:22;18.50;99.90
27224;DHT22;14965;50.660;13.226;2022-10-16T14:49:54;18.50;99.90
27224;DHT22;14965;50.660;13.226;2022-10-16T14:52:26;18.50;99.90
27224;DHT22;14965;50.660;13.226;2022-10-16T14:55:20;18.40;99.90
27224;DHT22;14965;50.660;13.226;2022-10-16T14:58:46;18.50;99.90
27224;DHT22;14965;50.660;13.226;2022-10-16T15:01:22;18.50;99.90
27224;DHT22;14965;50.660;13.226;2022-10-16T15:03:56;18.50;99.90
27224;DHT22;14965;50.660;13.226;2022-10-16T15:06:22;18.50;99.90
27224;DHT22;14965;50.660;13.226;2022-10-16T15:08:55;18.60;99.90
27224;DHT22;14965;50.660;13.226;2022-10-16T15:11:25;18.60;99.90
27224;DHT22;14965;50.660;13.226;2022-10-16T15:17:38;18.50;99.90
27224;DHT22;14965;50.660;13.226;2022-10-16T15:20:07;18.40;99.90
27224;DHT22;14965;50.660;13.226;2022-10-16T15:22:33;18.30;99.90
27224;DHT22;14965;50.660;13.226;2022-10-16T15:24:59;18.30;99.90
27224;DHT22;14965;50.660;13.226;2022-10-16T15:27:25;18.10;99.90
27224;DHT22;14965;50.660;13.226;2022-10-16T15:29:50;18.10;99.90
27224;DHT22;14965;50.660;13.226;2022-10-16T15:32:16;18.00;99.90
27224;DHT22;14965;50.660;13.226;2022-10-16T15:34:42;17.80;99.90
27224;DHT22;14965;50.660;13.226;2022-10-16T15:37:10;17.80;99.90
27224;DHT22;14965;50.660;13.226;2022-10-16T15:39:36;17.70;99.90
27224;DHT22;14965;50.660;13.226;2022-10-16T15:42:01;17.60;99.90
27224;DHT22;14965;50.660;13.226;2022-10-16T15:44:27;17.50;99.90
27224;DHT22;14965;50.660;13.226;2022-10-16T15:46:54;17.40;99.90
27224;DHT22;14965;50.660;13.226;2022-10-16T15:49:20;17.30;99.90
27224;DHT22;14965;50.660;13.226;2022-10-16T15:51:46;17.30;99.90
27224;DHT22;14965;50.660;13.226;2022-10-16T15:54:13;17.20;99.90
27224;DHT22;14965;50.660;13.226;2022-10-16T15:56:39;17.10;99.90
27224;DHT22;14965;50.660;13.226;2022-10-16T15:59:05;17.10;99.90
27224;DHT22;14965;50.660;13.226;2022-10-16T16:01:32;17.00;99.90
27224;DHT22;14965;50.660;13.226;2022-10-16T16:03:58;16.90;99.90
27224;DHT22;14965;50.660;13.226;2022-10-16T16:06:24;16.80;99.90